createdAt,value
2023-01-24T00:01:19.949Z,4.2
2023-01-24T00:03:24.818Z,4.3
2023-01-24T00:05:26.420Z,4.3
2023-01-24T00:07:28.028Z,4.2
2023-01-24T00:08:30.476Z,4.3
2023-01-24T00:10:32.020Z,4.2
2023-01-24T00:12:33.654Z,4.3
2023-01-24T00:14:35.254Z,4.2
2023-01-24T00:16:40.201Z,4.3
2023-01-24T00:18:41.713Z,4.2
2023-01-24T00:20:43.340Z,4.3
2023-01-24T00:22:44.966Z,4.2
2023-01-24T00:24:46.548Z,4.2
2023-01-24T00:26:48.209Z,4.3
2023-01-24T00:28:49.812Z,4.2
2023-01-24T00:30:54.733Z,4.2
2023-01-24T00:32:56.266Z,4.2
2023-01-24T00:34:57.890Z,4.2
2023-01-24T00:36:59.509Z,4.2
2023-01-24T00:39:01.113Z,4.2
2023-01-24T00:41:02.742Z,4.1
2023-01-24T00:43:04.359Z,4.1
2023-01-24T00:45:09.221Z,4.2
2023-01-24T00:47:10.821Z,4.1
2023-01-24T00:49:12.449Z,4.2
2023-01-24T00:51:14.071Z,4.2
2023-01-24T00:53:15.651Z,4.2
2023-01-24T00:55:17.288Z,4.2
2023-01-24T00:57:18.895Z,4.2
2023-01-24T00:59:23.744Z,4.2
2023-01-24T01:03:27.027Z,4.1
2023-01-24T01:05:55.544Z,4.1
2023-01-24T01:07:57.183Z,4.2
2023-01-24T01:12:03.620Z,4.3
2023-01-24T01:14:05.287Z,4.2
2023-01-24T01:16:06.975Z,4.2
2023-01-24T01:18:08.450Z,4.2
2023-01-24T01:24:13.345Z,4
2023-01-24T01:26:18.155Z,4
2023-01-24T01:28:19.780Z,4.1
2023-01-24T01:30:21.386Z,4.1
2023-01-24T01:32:23.006Z,4.1
2023-01-24T01:34:24.608Z,4.1
2023-01-24T01:36:26.221Z,4
2023-01-24T01:38:27.855Z,4.1
2023-01-24T01:40:32.698Z,4.1
2023-01-24T01:42:34.316Z,4
2023-01-24T01:44:35.931Z,4.1
2023-01-24T01:46:37.527Z,4
2023-01-24T01:48:39.177Z,4
2023-01-24T01:50:40.808Z,4
2023-01-24T01:52:42.369Z,4
2023-01-24T01:54:47.234Z,3.9
2023-01-24T01:56:48.873Z,3.9
2023-01-24T01:58:50.467Z,4
2023-01-24T01:59:52.883Z,3.8
2023-01-24T02:01:54.581Z,3.9
2023-01-24T02:03:56.108Z,3.9
2023-01-24T02:05:57.715Z,3.9
2023-01-24T02:08:02.543Z,3.8
2023-01-24T02:10:04.161Z,3.8
2023-01-24T02:12:05.769Z,3.8
2023-01-24T02:14:07.362Z,3.9
2023-01-24T02:16:09.002Z,3.9
2023-01-24T02:18:10.580Z,3.8
2023-01-24T02:20:12.177Z,3.8
2023-01-24T02:22:17.016Z,3.8
2023-01-24T02:24:18.650Z,3.8
2023-01-24T02:26:20.228Z,3.8
2023-01-24T02:30:23.439Z,3.7
2023-01-24T02:32:25.011Z,3.7
2023-01-24T02:38:33.067Z,3.7
2023-01-24T02:40:34.666Z,3.7
2023-01-24T02:42:36.283Z,3.6
2023-01-24T02:44:37.872Z,3.6
2023-01-24T02:46:39.471Z,3.5
2023-01-24T02:48:41.084Z,3.5
2023-01-24T02:50:45.912Z,3.6
2023-01-24T02:52:47.523Z,3.7
2023-01-24T02:54:49.128Z,3.6
2023-01-24T02:57:53.137Z,3.5
2023-01-24T02:59:54.744Z,3.6
2023-01-24T03:01:56.376Z,3.5
2023-01-24T03:06:02.773Z,3.5
2023-01-24T03:08:04.373Z,3.6
2023-01-24T03:14:09.149Z,3.6
2023-01-24T03:16:10.800Z,3.5
2023-01-24T03:18:15.552Z,3.5
2023-01-24T03:20:17.157Z,3.5
2023-01-24T03:24:20.560Z,3.3
2023-01-24T03:26:21.955Z,3.3
2023-01-24T03:28:23.517Z,3.5
2023-01-24T03:30:25.130Z,3.4
2023-01-24T03:32:29.943Z,3.5
2023-01-24T03:34:31.561Z,3.5
2023-01-24T03:36:33.234Z,3.4
2023-01-24T03:38:34.713Z,3.4
2023-01-24T03:40:36.331Z,3.3
2023-01-24T03:42:37.895Z,3.4
2023-01-24T03:44:39.469Z,3.4
2023-01-24T03:46:44.305Z,3.4
2023-01-24T03:48:45.912Z,3.3
2023-01-24T03:50:47.484Z,3.4
2023-01-24T03:51:49.897Z,3.4
2023-01-24T03:53:51.512Z,3.4
2023-01-24T03:55:53.086Z,3.4
2023-01-24T03:57:54.689Z,3.3
2023-01-24T03:59:59.498Z,3.3
2023-01-24T04:02:01.124Z,3.3
2023-01-24T04:04:02.676Z,3.3
2023-01-24T04:06:04.268Z,3.3
2023-01-24T04:08:05.859Z,3.4
2023-01-24T04:10:07.451Z,3.3
2023-01-24T04:12:09.028Z,3.2
2023-01-24T04:14:13.881Z,3.3
2023-01-24T04:16:15.446Z,3.4
2023-01-24T04:20:18.628Z,3.3
2023-01-24T04:22:20.205Z,3.3
2023-01-24T04:24:21.809Z,3.4
2023-01-24T04:26:23.400Z,3.3
2023-01-24T04:28:28.234Z,3.2
2023-01-24T04:32:31.384Z,3.2
2023-01-24T04:34:32.991Z,3.3
2023-01-24T04:36:34.585Z,3.2
2023-01-24T04:38:36.164Z,3.2
2023-01-24T04:42:42.577Z,3.3
2023-01-24T04:44:44.133Z,3.2
2023-01-24T04:46:45.743Z,3.2
2023-01-24T04:55:22.732Z,3.3
2023-01-24T04:57:23.922Z,3.2
2023-01-24T05:01:27.078Z,3.1
2023-01-24T05:07:31.860Z,3.2
2023-01-24T05:09:36.660Z,3.1
2023-01-24T05:11:39.768Z,3.2
2023-01-24T05:13:41.339Z,3.2
2023-01-24T05:15:42.932Z,3.1
2023-01-24T05:17:44.501Z,3.2
2023-01-24T05:19:46.112Z,3.2
2023-01-24T05:21:47.675Z,3.2
2023-01-24T05:23:52.580Z,3.2
2023-01-24T05:25:54.091Z,3.1
2023-01-24T05:27:55.664Z,3
2023-01-24T05:29:57.245Z,3.1
2023-01-24T05:31:58.869Z,3.1
2023-01-24T05:34:00.381Z,3.2
2023-01-24T05:36:01.976Z,3.2
2023-01-24T05:38:06.792Z,3.3
2023-01-24T05:40:08.379Z,3.2
2023-01-24T05:42:09.961Z,3.2
2023-01-24T05:43:12.354Z,3.2
2023-01-24T05:47:15.540Z,3.2
2023-01-24T05:49:17.142Z,3.2
2023-01-24T05:51:21.947Z,3.2
2023-01-24T05:59:28.298Z,3
2023-01-24T06:01:29.882Z,3
2023-01-24T06:03:31.490Z,3.1
2023-01-24T06:05:36.299Z,3.2
2023-01-24T06:07:37.870Z,3.1
2023-01-24T06:11:41.034Z,2.9
2023-01-24T06:13:42.630Z,3
2023-01-24T06:15:44.261Z,3.1
2023-01-24T06:17:45.786Z,2.9
2023-01-24T06:19:50.608Z,3
2023-01-24T06:21:52.173Z,3.1
2023-01-24T06:23:53.845Z,3.1
2023-01-24T06:25:55.352Z,3
2023-01-24T06:27:56.890Z,2.9
2023-01-24T06:30:00.057Z,3
2023-01-24T06:36:06.480Z,2.9
2023-01-24T06:39:10.410Z,2.9
2023-01-24T06:41:12.003Z,2.8
2023-01-24T06:43:13.576Z,2.9
2023-01-24T06:45:15.161Z,3
2023-01-24T06:47:19.997Z,3
2023-01-24T06:49:21.567Z,2.9
2023-01-24T06:51:23.149Z,3
2023-01-24T06:53:24.685Z,2.9
2023-01-24T06:55:26.269Z,3
2023-01-24T06:57:27.845Z,2.9
2023-01-24T06:59:29.425Z,3
2023-01-24T07:01:34.291Z,3
2023-01-24T07:03:35.834Z,3.1
2023-01-24T07:05:37.400Z,3
2023-01-24T07:07:38.981Z,2.9
2023-01-24T07:09:40.544Z,2.8
2023-01-24T07:11:42.130Z,3
2023-01-24T07:13:43.703Z,2.9
2023-01-24T07:15:48.581Z,2.9
2023-01-24T07:17:50.116Z,3
2023-01-24T07:19:51.665Z,2.9
2023-01-24T07:21:53.216Z,2.9
2023-01-24T07:23:54.908Z,3
2023-01-24T07:27:57.968Z,2.9
2023-01-24T07:30:02.786Z,3
2023-01-24T07:34:05.945Z,2.9
2023-01-24T07:39:11.494Z,2.9
2023-01-24T07:41:13.082Z,2.9
2023-01-24T07:43:17.868Z,2.9
2023-01-24T07:47:21.018Z,2.9
2023-01-24T07:49:22.601Z,2.8
2023-01-24T07:51:24.194Z,3
2023-01-24T07:53:25.725Z,2.9
2023-01-24T07:55:27.328Z,3
2023-01-24T07:57:32.143Z,3
2023-01-24T07:59:38.941Z,3.1
2023-01-24T08:01:35.286Z,3
2023-01-24T08:03:36.844Z,3.1
2023-01-24T08:05:38.411Z,3
2023-01-24T08:07:39.993Z,3.1
2023-01-24T08:09:41.531Z,3
2023-01-24T08:11:46.347Z,3.1
2023-01-24T08:13:47.927Z,3.1
2023-01-24T08:15:49.495Z,3
2023-01-24T08:17:51.059Z,3.1
2023-01-24T08:19:57.222Z,3
2023-01-24T08:21:54.218Z,3.1
2023-01-24T08:23:55.792Z,3.1
2023-01-24T08:26:00.567Z,3
2023-01-24T08:28:02.141Z,3
2023-01-24T08:30:03.728Z,3
2023-01-24T08:34:33.878Z,2.9
2023-01-24T08:36:35.446Z,2.9
2023-01-24T08:38:40.262Z,2.7
2023-01-24T08:40:49.353Z,2.8
2023-01-24T08:42:43.396Z,2.8
2023-01-24T08:44:44.975Z,2.8
2023-01-24T08:46:46.559Z,2.7
2023-01-24T08:48:48.137Z,2.8
2023-01-24T08:50:49.669Z,2.7
2023-01-24T08:52:54.493Z,2.7
2023-01-24T08:54:56.052Z,2.8
2023-01-24T08:56:57.622Z,2.9
2023-01-24T08:58:59.187Z,3
2023-01-24T09:01:00.745Z,3
2023-01-24T09:03:02.308Z,3
2023-01-24T09:05:03.899Z,2.9
2023-01-24T09:07:08.673Z,3
2023-01-24T09:09:10.283Z,3
2023-01-24T09:11:11.842Z,3.1
2023-01-24T09:13:13.403Z,3
2023-01-24T09:15:14.937Z,2.9
2023-01-24T09:17:16.519Z,3
2023-01-24T09:19:18.097Z,3.1
2023-01-24T09:23:24.504Z,3
2023-01-24T09:25:26.332Z,3.1
2023-01-24T09:26:28.427Z,2.9
2023-01-24T09:46:47.358Z,3.1
2023-01-24T09:48:52.150Z,3.1
2023-01-24T09:50:53.765Z,3.2
2023-01-24T09:52:55.359Z,3.2
2023-01-24T09:54:56.917Z,3.2
2023-01-24T09:56:58.474Z,3.1
2023-01-24T09:59:00.089Z,3.2
2023-01-24T10:01:01.634Z,3.3
2023-01-24T10:03:06.464Z,3.3
2023-01-24T10:05:08.003Z,3.4
2023-01-24T10:07:09.580Z,3.3
2023-01-24T10:13:14.295Z,3.3
2023-01-24T10:15:15.894Z,3.3
2023-01-24T10:17:20.714Z,3.1
2023-01-24T10:21:23.880Z,3.1
2023-01-24T10:22:26.281Z,3.1
2023-01-24T10:24:27.940Z,3.1
2023-01-24T10:26:29.455Z,3.1
2023-01-24T10:28:31.021Z,3.1
2023-01-24T10:30:35.905Z,3
2023-01-24T10:32:37.396Z,3.1
2023-01-24T10:34:38.977Z,3.1
2023-01-24T10:36:40.570Z,3.2
2023-01-24T10:38:42.129Z,3.2
2023-01-24T10:40:43.696Z,3.1
2023-01-24T10:42:45.292Z,3.2
2023-01-24T10:44:50.121Z,3.1
2023-01-24T10:46:51.692Z,3.1
2023-01-24T10:48:53.263Z,3.1
2023-01-24T10:50:54.870Z,3.1
2023-01-24T10:52:56.411Z,3
2023-01-24T10:54:58.012Z,3.1
2023-01-24T10:56:59.597Z,3
2023-01-24T10:59:04.391Z,3
2023-01-24T11:01:06.065Z,3.1
2023-01-24T11:03:09.079Z,3.3
2023-01-24T11:18:25.751Z,3.1
2023-01-24T11:20:27.299Z,3.1
2023-01-24T11:22:28.900Z,3.2
2023-01-24T11:24:30.486Z,3.2
2023-01-24T11:26:35.327Z,3.1
2023-01-24T11:28:36.920Z,3.1
2023-01-24T11:30:38.480Z,3.2
2023-01-24T11:48:55.929Z,3.1
2023-01-24T11:55:03.901Z,3.3
2023-01-24T11:59:07.065Z,3.3
2023-01-24T12:01:08.610Z,3.3
2023-01-24T12:03:10.208Z,3.3
2023-01-24T12:05:11.780Z,3.2
2023-01-24T12:09:18.180Z,3.2
2023-01-24T12:13:21.360Z,3.3
2023-01-24T12:15:49.931Z,3.2
2023-01-24T12:17:51.481Z,3.3
2023-01-24T12:19:53.101Z,3.3
2023-01-24T12:21:57.877Z,3.2
2023-01-24T12:23:59.516Z,3.2
2023-01-24T12:36:13.950Z,3.3
2023-01-24T12:38:13.796Z,3.4
2023-01-24T12:42:16.963Z,3.3
2023-01-24T12:44:18.613Z,3.4
2023-01-24T12:46:20.149Z,3.3
2023-01-24T12:48:21.716Z,3.4
2023-01-24T12:50:26.544Z,3.4
2023-01-24T12:52:28.116Z,3.5
2023-01-24T12:54:29.679Z,3.4
2023-01-24T12:56:31.267Z,3.6
2023-01-24T12:58:32.854Z,3.5
2023-01-24T13:02:36.027Z,3.5
2023-01-24T13:04:40.874Z,3.5
2023-01-24T13:06:46.519Z,3.6
2023-01-24T13:09:46.459Z,3.4
2023-01-24T13:11:48.047Z,3.4
2023-01-24T13:13:49.634Z,3.4
2023-01-24T13:15:51.225Z,3.4
2023-01-24T13:17:56.119Z,3.5
2023-01-24T13:19:57.635Z,3.4
2023-01-24T13:21:59.229Z,3.4
2023-01-24T13:24:00.830Z,3.5
2023-01-24T13:26:02.401Z,3.5
2023-01-24T13:28:03.998Z,3.5
2023-01-24T13:32:10.447Z,3.7
2023-01-24T13:34:12.014Z,3.6
2023-01-24T13:36:13.564Z,3.4
2023-01-24T13:40:16.786Z,3.5
2023-01-24T13:44:19.939Z,3.2
2023-01-24T13:48:26.362Z,3.2
2023-01-24T13:50:27.978Z,3.3
2023-01-24T13:52:29.551Z,3.2
2023-01-24T13:54:31.119Z,3.2
2023-01-24T13:56:33.115Z,3.1
2023-01-24T13:58:34.325Z,3.2
2023-01-24T14:00:39.148Z,3.2
2023-01-24T14:02:42.852Z,3.1
2023-01-24T14:04:42.354Z,3
2023-01-24T14:05:44.730Z,3.1
2023-01-24T14:07:46.326Z,3.1
2023-01-24T14:09:47.882Z,3.3
2023-01-24T14:11:49.494Z,3.3
2023-01-24T14:13:54.321Z,3.3
2023-01-24T14:15:55.883Z,3.4
2023-01-24T14:17:57.502Z,3.5
2023-01-24T14:19:59.071Z,3.4
2023-01-24T14:22:00.646Z,3.4
2023-01-24T14:28:08.647Z,3.4
2023-01-24T14:38:16.597Z,3.2
2023-01-24T14:40:18.143Z,3.2
2023-01-24T14:46:26.265Z,3.1
2023-01-24T14:56:37.251Z,3.2
2023-01-24T14:58:38.828Z,3.3
2023-01-24T15:00:40.400Z,3.2
2023-01-24T15:01:42.929Z,3
2023-01-24T15:03:44.416Z,2.9
2023-01-24T15:05:45.966Z,3
2023-01-24T15:07:47.560Z,2.8
2023-01-24T15:09:52.375Z,2.9
2023-01-24T15:11:53.961Z,3
2023-01-24T15:13:55.555Z,3
2023-01-24T15:15:57.157Z,3
2023-01-24T15:17:58.719Z,3.1
2023-01-24T15:20:00.380Z,3.1
2023-01-24T15:22:01.864Z,3
2023-01-24T15:24:06.795Z,2.9
2023-01-24T15:26:08.254Z,2.9
2023-01-24T15:30:11.465Z,2.9
2023-01-24T15:32:13.070Z,2.8
2023-01-24T15:34:14.592Z,2.9
2023-01-24T15:36:16.154Z,2.8
2023-01-24T15:38:21.031Z,2.8
2023-01-24T15:40:22.620Z,2.9
2023-01-24T15:44:25.773Z,2.9
2023-01-24T15:46:27.371Z,2.9
2023-01-24T15:48:28.892Z,2.9
2023-01-24T15:50:30.471Z,2.8
2023-01-24T15:52:35.262Z,2.8
2023-01-24T15:54:36.853Z,2.8
2023-01-24T15:56:51.101Z,2.7
2023-01-24T16:01:08.579Z,2.6
2023-01-24T16:05:14.920Z,2.8
2023-01-24T16:13:21.182Z,2.6
2023-01-24T16:15:22.782Z,2.7
2023-01-24T16:17:24.324Z,2.8
2023-01-24T16:19:29.136Z,2.8
2023-01-24T16:21:30.700Z,2.8
2023-01-24T16:23:32.273Z,2.8
2023-01-24T16:25:33.850Z,2.8
2023-01-24T16:27:35.393Z,2.8
2023-01-24T16:29:36.970Z,2.7
2023-01-24T16:31:38.614Z,2.8
2023-01-24T16:33:43.326Z,2.7
2023-01-24T16:35:44.893Z,2.7
2023-01-24T16:37:46.435Z,2.7
2023-01-24T16:39:48.014Z,2.7
2023-01-24T16:41:49.596Z,2.7
2023-01-24T16:43:51.152Z,2.6
2023-01-24T16:45:52.758Z,2.6
2023-01-24T16:52:08.510Z,2.7
2023-01-24T16:53:04.653Z,2.6
2023-01-24T16:55:06.192Z,2.6
2023-01-24T17:01:14.273Z,2.6
2023-01-24T17:03:15.749Z,2.7
2023-01-24T17:05:17.296Z,2.6
2023-01-24T17:07:18.878Z,2.6
2023-01-24T17:09:20.558Z,2.8
2023-01-24T17:11:22.048Z,2.8
2023-01-24T17:13:23.595Z,2.7
2023-01-24T17:15:28.407Z,2.6
2023-01-24T17:17:29.979Z,2.6
2023-01-24T17:19:31.564Z,2.6
2023-01-24T17:21:33.128Z,2.5
2023-01-24T17:23:34.709Z,2.6
2023-01-24T17:25:36.284Z,2.6
2023-01-24T17:27:37.864Z,2.6
2023-01-24T17:29:42.664Z,2.6
2023-01-24T17:31:44.295Z,2.6
2023-01-24T17:33:45.821Z,2.6
2023-01-24T17:35:47.395Z,2.6
2023-01-24T17:41:52.102Z,2.5
2023-01-24T17:49:02.421Z,2.5
2023-01-24T17:51:04.013Z,2.4
2023-01-24T17:53:05.563Z,2.4
2023-01-24T17:55:07.576Z,2.4
2023-01-24T17:57:11.965Z,2.2
2023-01-24T17:59:13.535Z,2.4
2023-01-24T18:01:15.165Z,2.5
2023-01-24T18:03:16.650Z,2.4
2023-01-24T18:05:18.264Z,2.4
2023-01-24T18:07:19.804Z,2.5
2023-01-24T18:11:26.155Z,2.6
2023-01-24T18:13:27.732Z,2.5
2023-01-24T18:15:29.277Z,2.4
2023-01-24T18:17:30.864Z,2.6
2023-01-24T18:19:32.411Z,2.6
2023-01-24T18:23:35.536Z,2.5
2023-01-24T18:25:40.343Z,2.4
2023-01-24T18:27:41.895Z,2.4
2023-01-24T18:29:43.475Z,2.5
2023-01-24T18:31:47.402Z,2.4
2023-01-24T18:33:46.560Z,2.5
2023-01-24T18:39:54.685Z,2.4
2023-01-24T18:41:56.038Z,2.4
2023-01-24T18:43:57.603Z,2.4
2023-01-24T18:47:01.590Z,2.3
2023-01-24T18:49:03.109Z,2.5
2023-01-24T18:51:04.680Z,2.5
2023-01-24T18:53:09.487Z,2.3
2023-01-24T18:55:11.034Z,2.3
2023-01-24T18:57:12.585Z,2.3
2023-01-24T18:59:14.152Z,2.3
2023-01-24T19:01:15.726Z,2.2
2023-01-24T19:03:17.253Z,2.3
2023-01-24T19:05:18.809Z,2.3
2023-01-24T19:07:23.656Z,2.4
2023-01-24T19:09:25.190Z,2.5
2023-01-24T19:11:26.739Z,2.4
2023-01-24T19:13:28.269Z,2.4
2023-01-24T19:29:43.957Z,2.3
2023-01-24T19:37:53.412Z,2.2
2023-01-24T19:39:54.999Z,2.2
2023-01-24T19:42:23.496Z,2.3
2023-01-24T19:44:25.050Z,2.2
2023-01-24T19:46:26.719Z,2.2
2023-01-24T19:48:31.380Z,2.1
2023-01-24T19:50:32.952Z,2.2
2023-01-24T19:52:34.475Z,2.2
2023-01-24T19:54:36.027Z,2.2
2023-01-24T19:56:37.980Z,2.4
2023-01-24T19:58:39.116Z,2.2
2023-01-24T20:00:40.686Z,2.2
2023-01-24T20:06:48.599Z,2.1
2023-01-24T20:08:50.092Z,2.1
2023-01-24T20:10:51.635Z,2.1
2023-01-24T20:12:53.208Z,2.2
2023-01-24T20:14:54.738Z,2.2
2023-01-24T20:16:59.641Z,2.2
2023-01-24T20:19:01.071Z,2.1
2023-01-24T20:21:02.619Z,2.2
2023-01-24T20:23:04.170Z,2.2
2023-01-24T20:25:17.512Z,2.3
2023-01-24T20:27:07.259Z,2.2
2023-01-24T20:29:08.877Z,2.3
2023-01-24T20:31:13.736Z,2.2
2023-01-24T20:33:15.120Z,2.2
2023-01-24T20:35:16.694Z,2.1
2023-01-24T20:40:22.182Z,2.1
2023-01-24T20:42:23.698Z,2.1
2023-01-24T20:44:28.520Z,1.9
2023-01-24T20:46:30.238Z,2.1
2023-01-24T20:48:31.575Z,2
2023-01-24T20:50:33.135Z,2.1
2023-01-24T20:52:34.687Z,2
2023-01-24T20:54:36.263Z,2.1
2023-01-24T20:56:37.772Z,2.1
2023-01-24T21:00:44.146Z,2.3
2023-01-24T21:02:45.740Z,2.2
2023-01-24T21:04:47.224Z,2.4
2023-01-24T21:06:48.764Z,2.2
2023-01-24T21:08:50.312Z,2.1
2023-01-24T21:10:51.857Z,2.1
2023-01-24T21:12:56.685Z,2
2023-01-24T21:14:58.205Z,2.1
2023-01-24T21:16:59.746Z,2.2
2023-01-24T21:19:01.283Z,1.9
2023-01-24T21:21:02.840Z,2.1
2023-01-24T21:23:04.382Z,2
2023-01-24T21:25:06.615Z,2
2023-01-24T21:31:13.940Z,1.8
2023-01-24T21:32:16.299Z,2
2023-01-24T21:34:17.755Z,1.8
2023-01-24T21:40:25.642Z,1.8
2023-01-24T21:42:27.188Z,1.8
2023-01-24T21:52:34.871Z,1.9
2023-01-24T21:56:41.159Z,2
2023-01-24T22:00:44.228Z,1.9
2023-01-24T22:02:45.811Z,1.8
2023-01-24T22:04:47.304Z,1.8
2023-01-24T22:06:48.859Z,1.8
2023-01-24T22:08:53.648Z,1.7
2023-01-24T22:10:55.189Z,1.8
2023-01-24T22:12:56.724Z,1.8
2023-01-24T22:14:58.253Z,1.9
2023-01-24T22:16:59.803Z,1.8
2023-01-24T22:19:01.330Z,1.7
2023-01-24T22:21:02.880Z,1.8
2023-01-24T22:23:07.646Z,1.9
2023-01-24T22:25:09.580Z,2
2023-01-24T22:28:13.104Z,1.9
2023-01-24T22:30:14.622Z,1.8
2023-01-24T22:32:16.250Z,1.8
2023-01-24T22:34:17.714Z,1.8
2023-01-24T22:36:22.475Z,1.8
2023-01-24T22:38:24.019Z,1.8
2023-01-24T22:40:25.556Z,1.7
2023-01-24T22:42:27.096Z,1.7
2023-01-24T22:44:30.214Z,1.7
2023-01-24T22:46:31.771Z,1.6
2023-01-24T22:48:33.212Z,1.8
2023-01-24T22:50:37.972Z,1.9
2023-01-24T22:52:39.513Z,1.8
2023-01-24T22:54:41.077Z,1.8
2023-01-24T22:56:42.574Z,1.8
2023-01-24T22:58:44.101Z,1.8
2023-01-24T23:00:45.775Z,1.7
2023-01-24T23:02:47.185Z,1.7
2023-01-24T23:04:52.024Z,1.6
2023-01-24T23:06:53.540Z,1.8
2023-01-24T23:08:55.006Z,1.7
2023-01-24T23:10:56.574Z,1.6
2023-01-24T23:12:58.098Z,1.7
2023-01-24T23:14:59.597Z,1.6
2023-01-24T23:17:01.155Z,1.6
2023-01-24T23:19:05.919Z,1.5
2023-01-24T23:21:07.442Z,1.6
2023-01-24T23:23:08.978Z,1.6
2023-01-24T23:25:37.535Z,1.6
2023-01-24T23:27:39.073Z,1.6
2023-01-24T23:29:40.593Z,1.6
2023-01-24T23:31:45.477Z,1.6
2023-01-24T23:33:46.908Z,1.5
2023-01-24T23:35:48.434Z,1.5
2023-01-24T23:37:49.954Z,1.5
2023-01-24T23:39:51.496Z,1.4
2023-01-24T23:41:52.994Z,1.4
2023-01-24T23:43:54.544Z,1.6
2023-01-24T23:45:59.322Z,1.5
2023-01-24T23:48:00.842Z,1.4
2023-01-24T23:52:03.886Z,1.5
2023-01-24T23:54:05.400Z,1.5
2023-01-24T23:56:06.944Z,1.5
